createdAt,value
2019-01-24T00:00:39.472Z,4.90
2019-01-24T00:03:09.127Z,5.10
2019-01-24T00:05:39.758Z,4.53
2019-01-24T00:08:09.418Z,3.40
2019-01-24T00:10:39.067Z,4.47
2019-01-24T00:13:08.743Z,5.23
2019-01-24T00:15:38.411Z,4.80
2019-01-24T00:18:08.057Z,5.10
2019-01-24T00:20:37.717Z,4.43
2019-01-24T00:23:07.381Z,4.40
2019-01-24T00:25:37.032Z,5.90
2019-01-24T00:28:06.715Z,4.93
2019-01-24T00:30:36.415Z,4.50
2019-01-24T00:33:06.104Z,4.60
2019-01-24T00:35:35.761Z,3.83
2019-01-24T00:38:05.414Z,5.00
2019-01-24T00:40:35.078Z,4.47
2019-01-24T00:43:05.687Z,4.03
2019-01-24T00:45:35.372Z,4.03
2019-01-24T00:48:05.016Z,5.03
2019-01-24T00:50:34.888Z,4.67
2019-01-24T00:53:04.539Z,4.63
2019-01-24T00:55:34.187Z,5.43
2019-01-24T00:58:03.835Z,4.53
2019-01-24T01:00:33.492Z,4.50
2019-01-24T01:03:04.315Z,5.53
2019-01-24T01:05:33.969Z,5.23
2019-01-24T01:08:03.611Z,4.10
2019-01-24T01:10:33.267Z,4.77
2019-01-24T01:13:03.002Z,4.30
2019-01-24T01:15:32.667Z,5.27
2019-01-24T01:18:02.335Z,4.50
2019-01-24T01:20:31.988Z,5.30
2019-01-24T01:23:01.647Z,3.43
2019-01-24T01:25:31.297Z,4.93
2019-01-24T01:28:00.943Z,4.67
2019-01-24T01:30:30.603Z,4.97
2019-01-24T01:33:00.258Z,3.87
2019-01-24T01:35:29.903Z,5.80
2019-01-24T01:37:59.612Z,4.03
2019-01-24T01:40:29.264Z,4.83
2019-01-24T01:42:58.925Z,3.83
2019-01-24T01:45:28.578Z,5.43
2019-01-24T01:47:58.224Z,3.53
2019-01-24T01:50:27.905Z,3.60
2019-01-24T01:52:58.961Z,4.63
2019-01-24T01:55:28.892Z,4.83
2019-01-24T01:57:58.552Z,5.07
2019-01-24T02:00:28.269Z,4.10
2019-01-24T02:02:57.919Z,5.00
2019-01-24T02:05:27.644Z,4.70
2019-01-24T02:07:57.304Z,4.30
2019-01-24T02:10:26.955Z,4.90
2019-01-24T02:12:56.610Z,4.00
2019-01-24T02:15:26.263Z,5.57
2019-01-24T02:17:55.915Z,4.47
2019-01-24T02:20:25.571Z,4.70
2019-01-24T02:22:55.239Z,4.50
2019-01-24T02:25:24.884Z,5.10
2019-01-24T02:27:54.550Z,5.13
2019-01-24T02:30:29.723Z,4.50
2019-01-24T02:32:59.437Z,4.57
2019-01-24T02:35:29.084Z,3.97
2019-01-24T02:37:58.748Z,5.90
2019-01-24T02:40:28.410Z,3.90
2019-01-24T02:42:58.057Z,5.07
2019-01-24T02:45:27.986Z,5.17
2019-01-24T02:47:57.641Z,7.20
2019-01-24T02:50:27.295Z,4.67
2019-01-24T02:52:57.276Z,4.63
2019-01-24T02:55:26.936Z,5.27
2019-01-24T02:57:56.593Z,5.03
2019-01-24T03:00:26.236Z,4.47
2019-01-24T03:02:55.883Z,5.30
2019-01-24T03:05:25.531Z,4.63
2019-01-24T03:07:55.188Z,6.07
2019-01-24T03:10:24.835Z,5.03
2019-01-24T03:12:54.508Z,3.90
2019-01-24T03:15:24.144Z,4.37
2019-01-24T03:17:53.806Z,4.60
2019-01-24T03:20:23.451Z,4.77
2019-01-24T03:22:53.105Z,4.37
2019-01-24T03:25:22.875Z,4.80
2019-01-24T03:27:52.521Z,5.40
2019-01-24T03:30:22.722Z,4.10
2019-01-24T03:32:52.455Z,4.07
2019-01-24T03:35:24.246Z,4.97
2019-01-24T03:37:53.900Z,4.13
2019-01-24T03:40:23.539Z,4.17
2019-01-24T03:42:53.195Z,4.13
2019-01-24T03:45:22.840Z,5.67
2019-01-24T03:47:52.508Z,4.40
2019-01-24T03:50:22.328Z,4.73
2019-01-24T03:52:51.986Z,5.23
2019-01-24T03:55:22.219Z,5.00
2019-01-24T03:57:53.066Z,5.57
2019-01-24T04:00:25.029Z,4.67
2019-01-24T04:02:54.680Z,4.07
2019-01-24T04:05:24.333Z,5.73
2019-01-24T04:07:53.975Z,4.90
2019-01-24T04:10:23.622Z,4.37
2019-01-24T04:12:53.278Z,4.53
2019-01-24T04:15:24.871Z,4.43
2019-01-24T04:17:54.515Z,5.17
2019-01-24T04:20:24.164Z,4.30
2019-01-24T04:22:53.828Z,4.47
2019-01-24T04:25:23.476Z,4.10
2019-01-24T04:27:53.151Z,4.57
2019-01-24T04:30:22.868Z,4.40
2019-01-24T04:32:52.516Z,4.40
2019-01-24T04:35:22.175Z,5.07
2019-01-24T04:37:51.826Z,4.03
2019-01-24T04:40:21.475Z,4.50
2019-01-24T04:42:51.895Z,4.67
2019-01-24T04:45:21.556Z,4.70
2019-01-24T04:47:51.215Z,5.17
2019-01-24T04:50:20.863Z,4.50
2019-01-24T04:52:50.524Z,4.90
2019-01-24T04:55:20.170Z,3.97
2019-01-24T04:57:49.827Z,4.23
2019-01-24T05:00:25.409Z,4.17
2019-01-24T05:02:55.223Z,4.57
2019-01-24T05:05:27.956Z,4.10
2019-01-24T05:07:56.224Z,4.47
2019-01-24T05:10:25.905Z,5.83
2019-01-24T05:12:55.571Z,3.40
2019-01-24T05:15:25.219Z,3.93
2019-01-24T05:17:54.881Z,3.83
2019-01-24T05:20:24.523Z,4.17
2019-01-24T05:22:54.185Z,3.50
2019-01-24T05:25:23.923Z,3.40
2019-01-24T05:27:53.563Z,4.47
2019-01-24T05:30:26.538Z,5.00
2019-01-24T05:32:56.195Z,4.30
2019-01-24T05:35:26.019Z,5.20
2019-01-24T05:37:55.700Z,3.67
2019-01-24T05:40:25.347Z,4.27
2019-01-24T05:42:54.996Z,4.60
2019-01-24T05:45:24.657Z,3.87
2019-01-24T05:47:54.377Z,5.20
2019-01-24T05:50:24.583Z,4.07
2019-01-24T05:52:54.362Z,4.30
2019-01-24T05:55:24.012Z,4.37
2019-01-24T05:57:53.667Z,4.17
2019-01-24T06:00:24.967Z,4.90
2019-01-24T06:02:54.623Z,3.60
2019-01-24T06:05:24.285Z,4.63
2019-01-24T06:07:53.974Z,4.70
2019-01-24T06:10:23.666Z,3.23
2019-01-24T06:12:54.489Z,4.33
2019-01-24T06:15:24.147Z,4.60
2019-01-24T06:17:54.972Z,4.43
2019-01-24T06:20:24.624Z,4.93
2019-01-24T06:22:54.288Z,4.77
2019-01-24T06:25:23.954Z,4.17
2019-01-24T06:27:53.646Z,3.70
2019-01-24T06:30:23.825Z,4.60
2019-01-24T06:32:53.471Z,4.07
2019-01-24T06:35:23.130Z,4.33
2019-01-24T06:37:52.792Z,4.23
2019-01-24T06:40:22.445Z,5.10
2019-01-24T06:42:52.097Z,3.90
2019-01-24T06:45:22.890Z,4.93
2019-01-24T06:47:52.543Z,5.10
2019-01-24T06:50:22.219Z,3.90
2019-01-24T06:52:51.874Z,4.13
2019-01-24T06:55:26.497Z,4.40
2019-01-24T06:57:56.149Z,4.67
2019-01-24T07:00:25.795Z,3.97
2019-01-24T07:02:55.446Z,4.17
2019-01-24T07:05:25.096Z,3.83
2019-01-24T07:07:54.745Z,3.97
2019-01-24T07:10:24.639Z,4.63
2019-01-24T07:12:54.288Z,3.67
2019-01-24T07:15:24.024Z,4.10
2019-01-24T07:17:53.671Z,5.03
2019-01-24T07:20:23.436Z,4.43
2019-01-24T07:22:53.111Z,3.70
2019-01-24T07:25:25.692Z,5.33
2019-01-24T07:27:55.335Z,4.03
2019-01-24T07:30:25.048Z,4.83
2019-01-24T07:32:54.736Z,4.23
2019-01-24T07:35:24.432Z,4.47
2019-01-24T07:37:54.090Z,3.77
2019-01-24T07:40:23.748Z,3.67
2019-01-24T07:42:53.400Z,4.33
2019-01-24T07:45:28.614Z,5.23
2019-01-24T07:47:58.268Z,4.27
2019-01-24T07:50:27.982Z,4.63
2019-01-24T07:52:57.620Z,4.00
2019-01-24T07:55:27.280Z,4.83
2019-01-24T07:57:56.962Z,4.60
2019-01-24T08:00:30.184Z,4.27
2019-01-24T08:02:59.837Z,4.57
2019-01-24T08:05:31.040Z,4.30
2019-01-24T08:08:00.695Z,4.20
2019-01-24T08:10:30.346Z,4.43
2019-01-24T08:13:00.073Z,6.23
2019-01-24T08:15:29.776Z,5.47
2019-01-24T08:17:59.439Z,3.93
2019-01-24T08:20:29.114Z,4.30
2019-01-24T08:22:58.759Z,4.00
2019-01-24T08:25:28.430Z,4.30
2019-01-24T08:27:58.084Z,4.03
2019-01-24T08:30:31.415Z,4.93
2019-01-24T08:33:01.064Z,4.27
2019-01-24T08:35:30.731Z,5.53
2019-01-24T08:38:00.396Z,8.53
2019-01-24T08:40:30.052Z,10.30
2019-01-24T08:42:59.724Z,11.80
2019-01-24T08:45:29.387Z,10.07
2019-01-24T08:47:59.054Z,15.60
2019-01-24T08:50:28.717Z,11.33
2019-01-24T08:52:58.412Z,8.73
2019-01-24T08:55:36.521Z,12.77
2019-01-24T08:58:06.195Z,11.20
2019-01-24T09:00:35.911Z,6.83
2019-01-24T09:03:05.565Z,7.43
2019-01-24T09:05:35.220Z,7.50
2019-01-24T09:08:05.449Z,6.20
2019-01-24T09:10:37.041Z,9.17
2019-01-24T09:13:07.059Z,6.60
2019-01-24T09:15:36.715Z,6.40
2019-01-24T09:18:06.529Z,6.87
2019-01-24T09:20:36.187Z,6.17
2019-01-24T09:23:06.048Z,6.13
2019-01-24T09:25:36.263Z,7.65
2019-01-24T09:28:05.984Z,4.53
2019-01-24T09:30:36.212Z,7.53
2019-01-24T09:33:06.124Z,7.80
2019-01-24T09:35:35.772Z,4.33
2019-01-24T09:38:05.991Z,6.60
2019-01-24T09:40:35.655Z,5.03
2019-01-24T09:43:05.730Z,13.20
